createdAt,value
2022-09-02T00:01:57.912Z,7.05
2022-09-02T00:04:59.941Z,5.28
2022-09-02T00:08:02.034Z,5.72
2022-09-02T00:11:04.461Z,7.03
2022-09-02T00:14:10.369Z,8.40
2022-09-02T00:17:12.548Z,5.97
2022-09-02T00:20:14.408Z,7.65
2022-09-02T00:23:18.924Z,6.88
2022-09-02T00:26:21.441Z,6.00
2022-09-02T00:29:23.481Z,6.57
2022-09-02T00:32:25.334Z,6.45
2022-09-02T00:35:27.439Z,6.00
2022-09-02T00:38:31.153Z,6.18
2022-09-02T00:41:33.287Z,5.80
2022-09-02T00:44:35.248Z,6.10
2022-09-02T00:47:40.095Z,6.15
2022-09-02T00:50:42.141Z,7.35
2022-09-02T00:53:46.573Z,7.10
2022-09-02T00:56:49.968Z,5.93
2022-09-02T01:00:23.290Z,7.93
2022-09-02T01:03:31.580Z,5.60
2022-09-02T01:06:33.630Z,11.40
2022-09-02T01:12:38.317Z,6.65
2022-09-02T01:15:44.392Z,6.93
2022-09-02T01:18:50.605Z,7.07
2022-09-02T01:21:55.057Z,6.05
2022-09-02T01:25:04.281Z,7.55
2022-09-02T01:28:11.082Z,6.38
2022-09-02T01:31:14.987Z,7.22
2022-09-02T01:37:20.613Z,7.82
2022-09-02T01:40:24.085Z,7.18
2022-09-02T01:43:28.644Z,6.65
2022-09-02T01:46:30.777Z,6.60
2022-09-02T01:49:35.321Z,6.63
2022-09-02T01:52:38.267Z,7.32
2022-09-02T01:55:40.170Z,7.13
2022-09-02T01:58:42.811Z,6.68
2022-09-02T02:01:45.970Z,7.93
2022-09-02T02:04:49.481Z,9.00
2022-09-02T02:07:51.778Z,7.47
2022-09-02T02:10:53.947Z,7.15
2022-09-02T02:13:57.943Z,6.90
2022-09-02T02:17:01.379Z,8.07
2022-09-02T02:23:06.904Z,6.25
2022-09-02T02:26:09.106Z,7.70
2022-09-02T02:29:12.957Z,5.57
2022-09-02T02:32:15.110Z,6.00
2022-09-02T02:35:18.675Z,7.90
2022-09-02T02:38:20.720Z,6.22
2022-09-02T02:41:23.374Z,5.32
2022-09-02T02:44:25.331Z,6.53
2022-09-02T02:47:27.418Z,6.13
2022-09-02T02:50:29.398Z,7.15
2022-09-02T02:53:35.099Z,5.85
2022-09-02T02:56:37.306Z,5.70
2022-09-02T02:59:39.546Z,4.93
2022-09-02T03:02:42.248Z,6.43
2022-09-02T03:05:44.311Z,7.03
2022-09-02T03:08:46.401Z,6.40
2022-09-02T03:11:53.841Z,6.40
2022-09-02T03:14:55.775Z,5.95
2022-09-02T03:17:57.812Z,5.53
2022-09-02T03:21:00.534Z,6.57
2022-09-02T03:24:02.673Z,6.50
2022-09-02T03:27:05.238Z,6.80
2022-09-02T03:30:09.800Z,6.97
2022-09-02T03:33:12.365Z,7.10
2022-09-02T03:36:27.490Z,6.10
2022-09-02T03:39:30.795Z,5.72
2022-09-02T03:42:33.386Z,6.00
2022-09-02T03:45:35.468Z,6.80
2022-09-02T03:48:41.037Z,6.13
2022-09-02T03:51:46.192Z,7.57
2022-09-02T03:54:48.285Z,6.65
2022-09-02T04:00:53.991Z,6.78
2022-09-02T04:03:57.739Z,7.00
2022-09-02T04:07:00.859Z,7.53
2022-09-02T04:10:04.292Z,6.20
2022-09-02T04:13:06.926Z,6.70
2022-09-02T04:16:12.052Z,6.20
2022-09-02T04:19:14.166Z,9.02
2022-09-02T04:22:17.121Z,7.38
2022-09-02T04:25:19.504Z,6.80
2022-09-02T04:28:29.260Z,7.90
2022-09-02T04:31:35.900Z,8.35
2022-09-02T04:34:38.281Z,8.18
2022-09-02T04:37:40.126Z,9.35
2022-09-02T04:40:46.220Z,7.22
2022-09-02T04:43:49.762Z,11.70
2022-09-02T04:46:52.127Z,7.22
2022-09-02T04:49:57.008Z,6.68
2022-09-02T04:52:59.275Z,7.03
2022-09-02T04:56:07.642Z,7.38
2022-09-02T05:02:17.835Z,7.32
2022-09-02T05:05:20.522Z,7.75
2022-09-02T05:08:30.100Z,9.38
2022-09-02T05:11:32.634Z,6.40
2022-09-02T05:14:34.482Z,6.75
2022-09-02T05:17:39.980Z,6.57
2022-09-02T05:20:42.761Z,8.93
2022-09-02T05:23:45.643Z,7.70
2022-09-02T05:26:48.170Z,7.95
2022-09-02T05:29:50.325Z,7.00
2022-09-02T05:32:55.711Z,7.78
2022-09-02T05:35:58.636Z,9.27
2022-09-02T05:39:01.022Z,6.97
2022-09-02T05:45:11.640Z,8.02
2022-09-02T05:48:18.330Z,8.02
2022-09-02T05:54:27.241Z,7.68
2022-09-02T05:57:29.571Z,7.75
2022-09-02T06:00:35.749Z,6.35
2022-09-02T06:03:38.418Z,7.63
2022-09-02T06:06:42.880Z,6.57
2022-09-02T06:09:45.882Z,7.03
2022-09-02T06:12:48.817Z,7.40
2022-09-02T06:15:54.393Z,5.70
2022-09-02T06:19:02.234Z,6.95
2022-09-02T06:22:04.875Z,7.72
2022-09-02T06:25:09.725Z,5.53
2022-09-02T06:28:13.221Z,5.43
2022-09-02T06:31:21.327Z,5.25
2022-09-02T06:34:25.268Z,6.57
2022-09-02T06:37:27.435Z,5.78
2022-09-02T06:40:29.971Z,5.35
2022-09-02T06:43:37.723Z,5.18
2022-09-02T06:46:59.407Z,4.78
2022-09-02T06:50:05.425Z,4.78
2022-09-02T06:53:08.042Z,5.28
2022-09-02T06:56:11.640Z,4.88
2022-09-02T06:59:14.957Z,4.22
2022-09-02T07:05:40.480Z,4.45
2022-09-02T07:08:43.650Z,3.50
2022-09-02T07:11:47.659Z,4.63
2022-09-02T07:14:50.095Z,3.97
2022-09-02T07:17:57.444Z,6.00
2022-09-02T07:21:12.525Z,4.10
2022-09-02T07:24:16.654Z,5.80
2022-09-02T07:27:19.484Z,4.57
2022-09-02T07:30:23.402Z,5.68
2022-09-02T07:33:32.245Z,4.72
2022-09-02T07:36:38.285Z,4.93
2022-09-02T07:39:42.479Z,4.15
2022-09-02T07:42:47.586Z,3.88
2022-09-02T07:45:50.069Z,4.05
2022-09-02T07:48:52.680Z,5.10
2022-09-02T07:51:55.557Z,3.60
2022-09-02T07:54:57.674Z,3.55
2022-09-02T07:58:00.540Z,6.20
2022-09-02T08:01:02.727Z,4.10
2022-09-02T08:04:06.253Z,3.97
2022-09-02T08:07:14.867Z,4.82
2022-09-02T08:10:17.205Z,3.83
2022-09-02T08:13:19.620Z,4.57
2022-09-02T08:16:23.759Z,4.72
2022-09-02T08:19:26.096Z,3.72
2022-09-02T08:25:36.712Z,3.92
2022-09-02T08:28:38.915Z,3.70
2022-09-02T08:31:40.924Z,6.07
2022-09-02T08:34:42.945Z,4.43
2022-09-02T08:37:45.577Z,5.85
2022-09-02T08:40:48.138Z,5.82
2022-09-02T08:43:55.037Z,5.60
2022-09-02T08:47:03.343Z,4.28
2022-09-02T08:50:15.190Z,4.70
2022-09-02T08:53:30.824Z,4.30
2022-09-02T08:56:35.066Z,3.78
2022-09-02T08:59:38.151Z,3.42
2022-09-02T09:03:13.448Z,3.85
2022-09-02T09:06:31.981Z,3.17
2022-09-02T09:09:40.250Z,4.43
2022-09-02T09:13:00.707Z,3.35
2022-09-02T09:16:09.385Z,3.25
2022-09-02T09:19:35.865Z,3.42
2022-09-02T09:22:39.839Z,4.20
2022-09-02T09:25:42.946Z,3.63
2022-09-02T09:28:47.374Z,4.75
2022-09-02T09:31:58.931Z,4.57
2022-09-02T09:35:07.463Z,6.00
2022-09-02T09:38:14.086Z,4.13
2022-09-02T09:41:23.055Z,4.55
2022-09-02T09:44:46.752Z,4.10
2022-09-02T09:48:14.354Z,4.38
2022-09-02T09:51:16.365Z,3.42
2022-09-02T09:54:18.388Z,3.70
2022-09-02T09:57:21.620Z,3.30
2022-09-02T10:00:31.345Z,5.68
2022-09-02T10:03:33.557Z,3.05
2022-09-02T10:06:44.941Z,3.88
2022-09-02T10:09:48.452Z,3.78
2022-09-02T10:12:53.870Z,4.85
2022-09-02T10:16:21.162Z,3.53
2022-09-02T10:19:39.314Z,4.55
2022-09-02T10:23:08.834Z,3.20
2022-09-02T10:29:54.950Z,4.80
2022-09-02T10:33:08.393Z,4.30
2022-09-02T10:39:57.735Z,3.90
2022-09-02T10:43:05.763Z,3.58
2022-09-02T10:46:09.657Z,4.55
2022-09-02T10:49:29.348Z,3.10
2022-09-02T11:03:33.244Z,3.88
2022-09-02T11:07:01.809Z,3.30
2022-09-02T11:10:56.517Z,3.38
2022-09-02T11:14:21.045Z,6.18
2022-09-02T11:17:33.431Z,2.45
2022-09-02T11:20:38.227Z,3.22
2022-09-02T11:24:09.932Z,3.38
2022-09-02T11:30:47.018Z,3.83
2022-09-02T11:37:29.611Z,4.70
2022-09-02T11:44:52.673Z,2.90
2022-09-02T11:48:14.265Z,3.95
2022-09-02T11:51:34.681Z,3.47
2022-09-02T11:54:41.218Z,4.18
2022-09-02T11:57:43.404Z,3.53
2022-09-02T12:00:57.457Z,5.10
2022-09-02T12:07:47.907Z,3.78
2022-09-02T12:10:49.752Z,3.53
2022-09-02T12:13:51.640Z,2.92
2022-09-02T12:17:06.133Z,3.25
2022-09-02T12:20:11.476Z,2.97
2022-09-02T12:23:48.681Z,3.63
2022-09-02T12:26:51.669Z,3.22
2022-09-02T12:29:55.589Z,4.88
2022-09-02T12:33:10.196Z,3.60
2022-09-02T12:36:36.844Z,4.40
2022-09-02T12:39:41.784Z,3.85
2022-09-02T12:42:46.743Z,2.22
2022-09-02T12:45:50.742Z,2.92
2022-09-02T12:49:11.829Z,3.25
2022-09-02T12:52:36.417Z,3.42
2022-09-02T12:55:50.469Z,3.88
2022-09-02T12:59:01.714Z,2.85
2022-09-02T13:02:30.630Z,3.25
2022-09-02T13:05:59.237Z,3.53
2022-09-02T13:09:37.190Z,3.45
2022-09-02T13:12:55.934Z,3.92
2022-09-02T13:16:22.121Z,3.15
2022-09-02T13:19:30.308Z,4.13
2022-09-02T13:22:48.056Z,3.20
2022-09-02T13:26:45.591Z,2.92
2022-09-02T13:30:05.040Z,2.45
2022-09-02T13:33:11.596Z,3.75
2022-09-02T13:36:27.713Z,3.13
2022-09-02T13:39:29.782Z,2.88
2022-09-02T13:42:32.734Z,3.83
2022-09-02T13:45:35.833Z,3.63
2022-09-02T13:48:40.291Z,5.78
2022-09-02T13:51:42.332Z,4.38
2022-09-02T13:54:48.385Z,3.67
2022-09-02T13:58:03.303Z,3.60
2022-09-02T14:01:38.519Z,3.17
2022-09-02T14:04:40.677Z,3.00
2022-09-02T14:07:50.210Z,3.58
2022-09-02T14:10:53.541Z,3.28
2022-09-02T14:13:56.747Z,2.13
2022-09-02T14:17:21.824Z,2.08
2022-09-02T14:20:23.787Z,5.15
2022-09-02T14:23:27.898Z,3.47
2022-09-02T14:26:37.286Z,2.90
2022-09-02T14:29:44.932Z,3.85
2022-09-02T14:32:46.874Z,3.03
2022-09-02T14:35:57.098Z,2.17
2022-09-02T14:39:18.001Z,2.65
2022-09-02T14:42:20.198Z,2.97
2022-09-02T14:45:30.678Z,3.03
2022-09-02T14:48:38.215Z,4.32
2022-09-02T14:51:49.204Z,2.38
2022-09-02T14:54:52.751Z,4.53
2022-09-02T14:58:02.408Z,3.08
2022-09-02T15:01:04.680Z,2.42
2022-09-02T15:04:06.733Z,4.10
2022-09-02T15:07:08.648Z,2.30
2022-09-02T15:10:10.776Z,2.97
2022-09-02T15:13:18.639Z,2.50
2022-09-02T15:16:20.699Z,4.70
2022-09-02T15:19:22.742Z,4.38
2022-09-02T15:22:25.186Z,4.82
2022-09-02T15:25:27.155Z,3.55
2022-09-02T15:28:29.123Z,4.20
2022-09-02T15:31:31.106Z,5.07
2022-09-02T15:34:34.017Z,4.18
2022-09-02T15:37:36.713Z,3.42
2022-09-02T15:40:38.610Z,2.10
2022-09-02T15:43:40.755Z,2.65
2022-09-02T15:46:43.871Z,3.20
2022-09-02T15:49:45.767Z,4.40
2022-09-02T15:52:47.576Z,3.65
2022-09-02T15:55:49.535Z,4.55
2022-09-02T15:58:59.492Z,3.45
2022-09-02T16:02:01.604Z,3.75
2022-09-02T16:05:03.783Z,2.92
2022-09-02T16:08:05.737Z,2.63
2022-09-02T16:11:08.932Z,3.38
2022-09-02T16:14:11.135Z,5.53
2022-09-02T16:17:13.009Z,3.80
2022-09-02T16:20:19.166Z,2.95
2022-09-02T16:23:23.288Z,4.30
2022-09-02T16:26:27.618Z,5.10
2022-09-02T16:29:29.472Z,4.00
2022-09-02T16:32:31.363Z,3.33
2022-09-02T16:35:33.319Z,3.95
2022-09-02T16:38:35.178Z,3.78
2022-09-02T16:41:40.556Z,2.83
2022-09-02T16:44:42.472Z,4.88
2022-09-02T16:47:44.597Z,2.83
2022-09-02T16:50:47.298Z,3.85
2022-09-02T16:53:57.181Z,4.43
2022-09-02T16:56:59.623Z,2.92
2022-09-02T17:00:01.526Z,5.38
2022-09-02T17:03:03.503Z,3.05
2022-09-02T17:06:06.346Z,3.38
2022-09-02T17:09:08.314Z,3.78
2022-09-02T17:12:10.317Z,2.83
2022-09-02T17:15:12.165Z,6.18
2022-09-02T17:18:14.091Z,4.38
2022-09-02T17:21:52.271Z,38.83
2022-09-02T17:24:54.171Z,8.20
2022-09-02T17:27:56.026Z,4.68
2022-09-02T17:30:58.011Z,3.38
2022-09-02T17:34:02.325Z,3.53
2022-09-02T17:37:04.617Z,5.28
2022-09-02T17:40:09.201Z,3.53
2022-09-02T17:43:11.266Z,2.92
2022-09-02T17:46:13.210Z,5.68
2022-09-02T17:49:17.755Z,6.20
2022-09-02T17:52:22.319Z,6.53
2022-09-02T17:55:24.277Z,4.30
2022-09-02T17:58:29.370Z,4.47
2022-09-02T18:01:36.259Z,4.55
2022-09-02T18:04:58.209Z,4.70
2022-09-02T18:08:13.868Z,4.43
2022-09-02T18:11:15.842Z,5.13
2022-09-02T18:17:41.231Z,4.68
2022-09-02T18:20:46.842Z,6.47
2022-09-02T18:24:23.992Z,5.22
2022-09-02T18:27:44.216Z,5.25
2022-09-02T18:31:07.914Z,5.63
2022-09-02T18:34:38.276Z,10.13
2022-09-02T18:38:00.709Z,13.15
2022-09-02T18:41:54.728Z,17.02
2022-09-02T18:45:21.919Z,13.93
2022-09-02T18:48:36.635Z,13.40
2022-09-02T18:51:45.480Z,22.05
2022-09-02T18:54:51.628Z,32.08
2022-09-02T18:57:57.376Z,24.60
2022-09-02T19:01:20.829Z,23.70
2022-09-02T19:04:29.239Z,17.25
2022-09-02T19:07:31.906Z,18.73
2022-09-02T19:10:33.840Z,24.63
2022-09-02T19:16:53.858Z,20.02
2022-09-02T19:19:55.839Z,11.88
2022-09-02T19:22:58.152Z,6.80
2022-09-02T19:26:00.022Z,6.72
2022-09-02T19:32:04.408Z,6.82
2022-09-02T19:35:10.516Z,4.80
2022-09-02T19:38:12.527Z,4.07
2022-09-02T19:41:14.505Z,3.88
2022-09-02T19:48:05.096Z,3.22
2022-09-02T19:50:44.530Z,5.70
2022-09-02T19:53:46.810Z,3.17
2022-09-02T19:56:48.644Z,4.40
2022-09-02T19:59:52.990Z,4.45
2022-09-02T20:02:55.675Z,3.33
2022-09-02T20:05:58.969Z,3.30
2022-09-02T20:09:01.063Z,3.78
2022-09-02T20:12:03.071Z,5.45
2022-09-02T20:15:05.948Z,4.13
2022-09-02T20:18:13.332Z,3.65
2022-09-02T20:21:30.700Z,3.90
2022-09-02T20:24:34.155Z,5.80
2022-09-02T20:27:59.136Z,5.32
2022-09-02T20:31:35.185Z,5.63
2022-09-02T20:34:49.493Z,4.38
2022-09-02T20:37:59.824Z,4.25
2022-09-02T20:41:35.798Z,3.75
2022-09-02T20:44:50.639Z,3.83
2022-09-02T20:48:02.595Z,3.33
2022-09-02T20:51:29.300Z,4.05
2022-09-02T20:54:44.776Z,6.60
2022-09-02T20:58:01.351Z,4.38
2022-09-02T21:04:26.994Z,5.05
2022-09-02T21:07:35.015Z,5.35
2022-09-02T21:10:43.082Z,5.00
2022-09-02T21:13:47.862Z,3.33
2022-09-02T21:16:57.249Z,4.88
2022-09-02T21:20:06.204Z,4.57
2022-09-02T21:23:17.883Z,3.47
2022-09-02T21:26:31.034Z,4.65
2022-09-02T21:29:48.481Z,3.22
2022-09-02T21:32:56.213Z,4.00
2022-09-02T21:36:00.038Z,5.43
2022-09-02T21:39:08.897Z,3.58
2022-09-02T21:42:25.402Z,4.07
2022-09-02T21:46:16.482Z,6.50
2022-09-02T21:50:03.327Z,4.88
2022-09-02T21:53:23.088Z,4.25
2022-09-02T21:56:55.986Z,4.70
2022-09-02T22:00:00.699Z,5.65
2022-09-02T22:03:23.652Z,3.38
2022-09-02T22:06:47.868Z,4.63
2022-09-02T22:10:08.163Z,6.43
2022-09-02T22:13:11.046Z,3.83
2022-09-02T22:16:20.217Z,4.32
2022-09-02T22:19:26.160Z,3.60
2022-09-02T22:22:31.721Z,4.47
2022-09-02T22:25:33.620Z,4.13
2022-09-02T22:31:50.189Z,4.43
2022-09-02T22:35:17.482Z,3.58
2022-09-02T22:38:28.981Z,4.13
2022-09-02T22:41:33.725Z,3.30
2022-09-02T22:44:45.234Z,4.10
2022-09-02T22:47:55.735Z,3.35
2022-09-02T22:51:08.307Z,6.05
2022-09-02T22:54:10.283Z,4.32
2022-09-02T22:57:30.747Z,3.85
2022-09-02T23:00:43.120Z,3.58
2022-09-02T23:03:45.115Z,3.35
2022-09-02T23:09:52.318Z,3.95
2022-09-02T23:13:15.051Z,4.07
2022-09-02T23:16:36.555Z,3.92
2022-09-02T23:19:46.078Z,4.13
2022-09-02T23:23:26.691Z,6.40
2022-09-02T23:26:57.124Z,3.92
2022-09-02T23:29:59.005Z,4.28
2022-09-02T23:33:31.543Z,3.53
2022-09-02T23:37:09.490Z,3.28
2022-09-02T23:40:27.936Z,4.38
2022-09-02T23:43:32.900Z,4.47
2022-09-02T23:47:32.378Z,4.75
2022-09-02T23:50:37.251Z,7.50
2022-09-02T23:53:58.026Z,4.22
2022-09-02T23:57:32.592Z,4.13
